BVA weather

Paris Beauvais Tillé Airport
Beauvais/Tillé, Picardie, France

Public forecast

Using degrees Celsius for public forecast. Weather courtesy of forecast.io.

Current aviation weather report (METAR) for Paris Beauvais Tillé Airport

Retrieved 2019/10/15 08:30 UTC (0 seconds ago):

LFOB 150830Z AUTO 24009KT 210V270 9999 OVC012 13/11 Q1007 BECMG BKN025

Aviation forecast (TAF) for Paris Beauvais Tillé Airport

Retrieved 2019/10/15 06:21 UTC (2 hours ago):

TAF LFOB 150500Z 1506/1606 20008KT 9999 BKN025 TEMPO 1506/1509 BKN012 PROB30 TEMPO 1515/1520 4000 SHRA BKN013TCU BECMG 1523/1602 17013KT TEMPO 1602/1606 17015G25KT 3000 RADZ BKN006 OVC013